< Typhoon 202109 2021 Season Typhoon 202111 >
Typhoon 202110 (MIRINAE)
General InformationTrack Information on Google MapsDetailed Wind InformationForecast History on Google MapsAccess Analytics MapList of All Images || NewsDisaster Info.JMA Disaster Info. XMLWeblogTrackbackTyphoon FrontTwiphoonTyphoon Now!Typhoon ImaginationResourceGoogle EarthGE AnimationAtom FeedGeoJSON
Detalied Best Track (Time Zone = UTC)
Year Month Day Hour Lat. Long. Pressure (hPa) Wind (kt) Class Image Chart
2021 8 3 06 23.8 124.5 998 0 2 Image Chart
2021 8 3 12 23.8 125.2 1000 0 2 Image Chart
2021 8 3 18 24.0 125.7 998 0 2 Image Chart
2021 8 4 00 24.4 125.6 1000 0 2 Image Chart
2021 8 4 06 25.2 125.5 998 0 2 Image Chart
2021 8 4 12 25.5 126.9 998 0 2 Image Chart
2021 8 4 18 25.9 127.4 996 0 2 Image Chart
2021 8 5 00 26.0 127.4 996 0 2 Image Chart
2021 8 5 06 26.9 128.1 992 35 3 Image Chart
2021 8 5 12 26.9 128.6 992 40 3 Image Chart
2021 8 5 18 26.9 130.0 992 40 3 Image Chart
2021 8 6 00 26.9 131.0 992 40 3 Image Chart
2021 8 6 06 27.4 133.6 990 40 3 Image Chart
2021 8 6 12 27.7 134.8 990 40 3 Image Chart
2021 8 6 18 28.5 136.6 990 40 3 Image Chart
2021 8 7 00 29.4 137.6 990 40 3 Image Chart
2021 8 7 06 30.8 138.5 985 45 3 Image Chart
2021 8 7 12 31.9 138.9 985 45 3 Image Chart
2021 8 7 18 33.2 139.5 980 50 4 Image Chart
2021 8 8 00 34.2 140.7 980 50 4 Image Chart
2021 8 8 06 35.2 142.2 980 50 4 Image Chart
2021 8 8 12 36.1 143.6 980 50 4 Image Chart
2021 8 8 18 36.5 145.1 985 45 3 Image Chart
2021 8 9 00 37.7 147.5 985 45 3 Image Chart
2021 8 9 06 38.3 149.7 985 45 3 Image Chart
2021 8 9 12 38.4 152.3 990 40 3 Image Chart
2021 8 9 18 38.5 155.3 992 40 3 Image Chart
2021 8 10 00 39.0 158.0 992 0 6 Image Chart
2021 8 10 06 37.8 160.9 992 0 6 Image Chart
2021 8 10 12 37.5 164.2 996 0 6 Image Chart
2021 8 10 18 37.2 167.2 996 0 6 Image Chart
2021 8 11 00 37.2 169.3 998 0 6 Image Chart
Japan Meteorological Agency Best Track Data | Correction Date : 2021-11-10
< Typhoon 202109 2021 Season Typhoon 202111 >

Help